createdAt,value
2018-12-12T00:02:12.810Z,6.81
2018-12-12T00:04:49.463Z,6.83
2018-12-12T00:07:19.516Z,6.73
2018-12-12T00:10:00.825Z,6.71
2018-12-12T00:12:31.340Z,6.76
2018-12-12T00:15:05.220Z,6.77
2018-12-12T00:17:33.961Z,6.78
2018-12-12T00:20:03.034Z,6.74
2018-12-12T00:22:32.090Z,6.70
2018-12-12T00:25:04.786Z,6.74
2018-12-12T00:27:33.523Z,6.69
2018-12-12T00:30:04.003Z,6.65
2018-12-12T00:32:37.194Z,6.72
2018-12-12T00:35:06.369Z,6.79
2018-12-12T00:37:39.420Z,6.92
2018-12-12T00:40:07.907Z,6.90
2018-12-12T00:42:36.312Z,7.03
2018-12-12T00:45:14.699Z,6.99
2018-12-12T00:47:43.991Z,7.12
2018-12-12T00:50:13.404Z,7.12
2018-12-12T00:52:43.080Z,7.24
2018-12-12T00:55:14.351Z,7.36
2018-12-12T00:57:44.256Z,7.31
2018-12-12T01:00:15.254Z,7.38
2018-12-12T01:02:45.624Z,7.43
2018-12-12T01:05:15.975Z,7.46
2018-12-12T01:07:45.492Z,7.53
2018-12-12T01:10:18.284Z,7.46
2018-12-12T01:12:48.158Z,7.46
2018-12-12T01:15:18.046Z,7.33
2018-12-12T01:17:48.494Z,7.20
2018-12-12T01:20:18.228Z,7.18
2018-12-12T01:22:48.109Z,7.22
2018-12-12T01:25:17.794Z,7.10
2018-12-12T01:27:47.056Z,7.17
2018-12-12T01:30:17.384Z,7.39
2018-12-12T01:32:47.405Z,7.53
2018-12-12T01:35:16.348Z,7.62
2018-12-12T01:37:46.183Z,7.60
2018-12-12T01:40:18.716Z,7.57
2018-12-12T01:42:52.390Z,7.53
2018-12-12T01:45:26.320Z,7.56
2018-12-12T01:48:00.502Z,7.61
2018-12-12T01:50:44.544Z,7.61
2018-12-12T01:53:19.222Z,7.63
2018-12-12T01:55:50.924Z,7.59
2018-12-12T01:58:21.099Z,7.59
2018-12-12T02:00:51.538Z,7.61
2018-12-12T02:03:20.626Z,7.63
2018-12-12T02:08:29.059Z,7.55
2018-12-12T02:11:04.780Z,7.47
2018-12-12T02:13:38.417Z,7.43
2018-12-12T02:16:10.594Z,7.41
2018-12-12T02:18:42.695Z,7.35
2018-12-12T02:21:11.551Z,7.37
2018-12-12T02:23:40.655Z,7.41
2018-12-12T02:26:10.319Z,7.44
2018-12-12T02:28:42.583Z,7.49
2018-12-12T02:31:13.139Z,7.48
2018-12-12T02:33:43.270Z,7.50
2018-12-12T02:36:13.960Z,7.51
2018-12-12T02:38:44.828Z,6.90
2018-12-12T02:41:14.340Z,7.41
2018-12-12T02:43:43.013Z,7.43
2018-12-12T02:46:14.063Z,7.41
2018-12-12T02:48:44.677Z,7.42
2018-12-12T02:51:18.410Z,7.40
2018-12-12T02:53:50.563Z,7.26
2018-12-12T02:56:21.352Z,7.23
2018-12-12T02:58:50.076Z,7.07
2018-12-12T03:01:25.102Z,7.02
2018-12-12T03:03:54.620Z,6.88
2018-12-12T03:06:23.987Z,6.76
2018-12-12T03:08:52.672Z,6.76
2018-12-12T03:11:25.434Z,6.82
2018-12-12T03:13:54.873Z,6.72
2018-12-12T03:16:24.054Z,6.72
2018-12-12T03:18:57.752Z,6.71
2018-12-12T03:21:30.682Z,6.76
2018-12-12T03:24:06.228Z,6.97
2018-12-12T03:26:51.602Z,7.04
2018-12-12T03:29:31.384Z,7.06
2018-12-12T03:32:00.183Z,7.18
2018-12-12T03:34:28.792Z,7.27
2018-12-12T03:36:59.241Z,7.29
2018-12-12T03:39:27.817Z,7.07
2018-12-12T03:41:57.794Z,7.22
2018-12-12T03:44:26.225Z,7.03
2018-12-12T03:46:55.689Z,6.91
2018-12-12T03:49:26.759Z,6.74
2018-12-12T03:51:55.163Z,6.61
2018-12-12T03:54:24.904Z,6.66
2018-12-12T03:56:54.681Z,6.97
2018-12-12T03:59:23.193Z,7.12
2018-12-12T04:01:53.109Z,7.18
2018-12-12T04:04:22.342Z,7.37
2018-12-12T04:06:53.210Z,7.40
2018-12-12T04:09:23.271Z,7.40
2018-12-12T04:13:39.366Z,7.73
2018-12-12T04:16:07.834Z,7.77
2018-12-12T04:18:36.157Z,7.72
2018-12-12T04:21:05.299Z,7.78
2018-12-12T04:23:34.101Z,7.88
2018-12-12T04:26:03.615Z,7.92
2018-12-12T04:28:32.626Z,7.93
2018-12-12T04:31:01.873Z,7.92
2018-12-12T04:33:30.950Z,8.03
2018-12-12T04:35:59.701Z,8.04
2018-12-12T04:38:28.004Z,7.91
2018-12-12T04:40:57.646Z,7.93
2018-12-12T04:43:27.271Z,8.06
2018-12-12T04:45:58.366Z,8.13
2018-12-12T04:48:27.138Z,8.13
2018-12-12T04:50:57.034Z,8.16
2018-12-12T04:53:27.508Z,8.17
2018-12-12T04:55:56.502Z,8.20
2018-12-12T04:58:25.201Z,8.18
2018-12-12T05:00:53.782Z,8.24
2018-12-12T05:03:22.224Z,8.27
2018-12-12T05:05:50.790Z,8.37
2018-12-12T05:08:20.005Z,8.33
2018-12-12T05:10:48.557Z,8.32
2018-12-12T05:13:23.567Z,8.33
2018-12-12T05:15:52.584Z,8.35
2018-12-12T05:18:21.438Z,8.34
2018-12-12T05:20:49.836Z,8.27
2018-12-12T05:23:18.437Z,8.18
2018-12-12T05:25:46.855Z,8.14
2018-12-12T05:28:15.201Z,8.13
2018-12-12T05:30:44.818Z,8.09
2018-12-12T05:33:13.290Z,8.09
2018-12-12T05:35:41.708Z,7.98
2018-12-12T05:38:12.307Z,7.99
2018-12-12T05:40:41.289Z,8.02
2018-12-12T05:43:10.213Z,8.07
2018-12-12T05:45:39.993Z,8.08
2018-12-12T05:48:08.456Z,7.95
2018-12-12T05:50:37.208Z,7.95
2018-12-12T05:53:06.554Z,7.87
2018-12-12T05:55:35.353Z,7.83
2018-12-12T06:00:48.594Z,7.75
2018-12-12T06:03:18.371Z,7.70
2018-12-12T06:05:46.955Z,7.55
2018-12-12T06:08:22.295Z,7.57
2018-12-12T06:11:03.324Z,7.64
2018-12-12T06:13:34.849Z,7.54
2018-12-12T06:16:08.787Z,7.41
2018-12-12T06:18:39.336Z,7.32
2018-12-12T06:21:10.745Z,7.31
2018-12-12T06:23:46.058Z,7.27
2018-12-12T06:26:17.034Z,7.27
2018-12-12T06:28:49.867Z,7.15
2018-12-12T06:31:30.172Z,7.09
2018-12-12T06:34:03.889Z,7.02
2018-12-12T06:36:35.668Z,7.08
2018-12-12T06:39:12.659Z,7.18
2018-12-12T06:41:45.181Z,7.18
2018-12-12T06:44:17.283Z,7.16
2018-12-12T06:46:45.862Z,7.16
2018-12-12T06:49:17.338Z,7.10
2018-12-12T06:51:49.593Z,7.02
2018-12-12T06:54:21.573Z,7.07
2018-12-12T06:56:55.078Z,7.09
2018-12-12T06:59:25.834Z,7.13
2018-12-12T07:02:00.862Z,7.17
2018-12-12T07:04:34.241Z,7.15
2018-12-12T07:07:03.615Z,6.88
2018-12-12T07:09:42.188Z,6.81
2018-12-12T07:12:13.609Z,6.62
2018-12-12T07:14:55.877Z,6.57
2018-12-12T07:21:56.537Z,6.64
2018-12-12T07:24:25.851Z,6.59
2018-12-12T07:26:56.071Z,6.55
2018-12-12T07:29:35.433Z,6.54
2018-12-12T07:32:11.338Z,6.42
2018-12-12T07:37:35.938Z,6.39
2018-12-12T07:40:21.804Z,6.64
2018-12-12T07:42:51.836Z,6.62
2018-12-12T07:45:25.466Z,6.57
2018-12-12T07:48:01.393Z,6.61
2018-12-12T07:50:33.168Z,6.69
2018-12-12T07:53:04.353Z,6.90
2018-12-12T07:55:39.902Z,7.05
2018-12-12T07:58:13.186Z,7.13
2018-12-12T08:00:44.993Z,7.15
2018-12-12T08:03:17.424Z,7.26
2018-12-12T08:05:52.742Z,7.34
2018-12-12T08:08:24.855Z,7.44
2018-12-12T08:10:59.690Z,7.56
2018-12-12T08:13:29.283Z,7.52
2018-12-12T08:16:04.792Z,7.46
2018-12-12T08:18:33.192Z,7.62
2018-12-12T08:21:05.743Z,7.61
2018-12-12T08:23:38.402Z,7.21
2018-12-12T08:26:08.327Z,7.55
2018-12-12T08:28:37.173Z,7.59
2018-12-12T08:31:07.764Z,7.47
2018-12-12T08:33:39.021Z,7.44
2018-12-12T08:36:10.461Z,7.56
2018-12-12T08:38:41.660Z,7.70
2018-12-12T08:41:14.658Z,7.77
2018-12-12T08:43:44.596Z,7.71
2018-12-12T08:46:20.113Z,7.76
2018-12-12T08:48:49.729Z,7.91
2018-12-12T08:51:23.586Z,7.96
2018-12-12T08:53:59.952Z,7.74
2018-12-12T08:56:36.560Z,7.71
2018-12-12T08:59:06.937Z,7.81
2018-12-12T09:01:42.429Z,7.85
2018-12-12T09:04:18.650Z,7.81
2018-12-12T09:06:47.167Z,7.81
2018-12-12T09:09:33.594Z,7.73
2018-12-12T09:12:04.572Z,7.73
2018-12-12T09:14:33.345Z,7.75
2018-12-12T09:17:02.445Z,7.92
2018-12-12T09:19:31.595Z,8.12
2018-12-12T09:22:00.097Z,8.29
2018-12-12T09:24:28.562Z,8.41
2018-12-12T09:26:59.429Z,8.57
2018-12-12T09:29:31.265Z,8.69
2018-12-12T09:32:00.526Z,8.66
2018-12-12T09:34:29.400Z,8.67
2018-12-12T09:36:58.538Z,8.76
2018-12-12T09:39:28.256Z,8.93
2018-12-12T09:44:51.444Z,8.65
2018-12-12T09:47:23.229Z,8.68
2018-12-12T09:49:54.818Z,8.76
2018-12-12T09:52:25.290Z,8.78
2018-12-12T09:54:54.743Z,8.80
2018-12-12T10:00:39.654Z,8.88
2018-12-12T10:03:31.187Z,8.81
2018-12-12T10:06:08.904Z,8.82
2018-12-12T10:11:33.197Z,9.03
2018-12-12T10:14:02.506Z,9.05
2018-12-12T10:16:40.063Z,8.98
2018-12-12T10:19:19.869Z,9.11
2018-12-12T10:22:00.505Z,9.16
2018-12-12T10:24:31.777Z,9.11
2018-12-12T10:27:08.428Z,9.19
2018-12-12T10:29:42.677Z,9.08
2018-12-12T10:32:14.630Z,9.09
2018-12-12T10:34:44.231Z,9.31
2018-12-12T10:37:15.296Z,9.16
2018-12-12T10:39:47.612Z,9.42
2018-12-12T10:42:22.897Z,9.29
2018-12-12T10:44:53.447Z,9.17
2018-12-12T10:47:29.197Z,9.18
2018-12-12T10:49:58.632Z,9.28
2018-12-12T10:52:34.924Z,9.25
2018-12-12T10:55:10.034Z,9.30
2018-12-12T10:57:40.966Z,9.27
2018-12-12T11:00:21.332Z,9.26
2018-12-12T11:03:03.416Z,9.34
2018-12-12T11:05:47.494Z,9.49
2018-12-12T11:08:29.612Z,9.48
2018-12-12T11:11:04.856Z,9.47
2018-12-12T11:13:46.116Z,9.51
2018-12-12T11:16:24.121Z,9.56
2018-12-12T11:18:56.499Z,9.38
2018-12-12T11:21:36.759Z,9.26
2018-12-12T11:24:11.760Z,9.38
2018-12-12T11:26:49.775Z,9.55
2018-12-12T11:29:19.935Z,9.46
2018-12-12T11:31:54.188Z,9.47
2018-12-12T11:34:37.007Z,9.55
2018-12-12T11:37:19.622Z,9.53
2018-12-12T11:39:53.693Z,9.50
2018-12-12T11:42:27.308Z,9.48
2018-12-12T11:48:04.490Z,9.48
2018-12-12T11:50:39.820Z,9.38
2018-12-12T11:56:15.171Z,9.45
2018-12-12T11:59:03.057Z,9.36
2018-12-12T12:01:46.116Z,9.81
2018-12-12T12:04:19.792Z,8.92
2018-12-12T12:06:57.996Z,10.63
2018-12-12T12:09:34.340Z,11.34
2018-12-12T12:12:06.081Z,11.65
2018-12-12T12:14:51.331Z,11.69
2018-12-12T12:17:29.599Z,11.77
2018-12-12T12:22:41.461Z,11.55
2018-12-12T12:25:31.170Z,11.60
2018-12-12T12:28:01.601Z,11.34
2018-12-12T12:30:38.374Z,11.05
2018-12-12T12:33:14.708Z,10.86
2018-12-12T12:36:04.222Z,10.52
2018-12-12T12:38:48.295Z,10.34
2018-12-12T12:41:20.414Z,10.05
2018-12-12T12:43:51.383Z,9.83
2018-12-12T12:46:31.050Z,9.88
2018-12-12T12:49:18.471Z,9.82
2018-12-12T12:51:52.186Z,9.81
2018-12-12T12:54:25.760Z,9.67
2018-12-12T12:57:05.953Z,9.58
2018-12-12T12:59:37.666Z,9.47
2018-12-12T13:04:50.093Z,9.42
2018-12-12T13:07:28.298Z,9.41
2018-12-12T13:10:01.191Z,9.42
2018-12-12T13:12:44.750Z,9.40
2018-12-12T13:18:18.540Z,9.23
2018-12-12T13:20:49.737Z,9.24
2018-12-12T13:23:20.839Z,9.31
2018-12-12T13:25:52.729Z,9.33
2018-12-12T13:28:21.916Z,9.17
2018-12-12T13:34:16.372Z,9.22
2018-12-12T13:36:47.490Z,9.23
2018-12-12T13:39:16.400Z,9.17
2018-12-12T13:41:52.716Z,8.61
2018-12-12T13:47:47.222Z,9.01
2018-12-12T13:53:03.390Z,8.83
2018-12-12T13:55:34.672Z,8.73
2018-12-12T13:58:06.236Z,8.73
2018-12-12T14:00:39.178Z,8.71
2018-12-12T14:03:12.915Z,8.70
2018-12-12T14:05:44.475Z,8.61
2018-12-12T14:08:23.856Z,8.57
2018-12-12T14:10:57.045Z,8.60
2018-12-12T14:13:28.233Z,8.64
2018-12-12T14:16:03.050Z,8.63
2018-12-12T14:18:33.532Z,8.58
2018-12-12T14:21:13.502Z,8.61
2018-12-12T14:23:56.600Z,8.70
2018-12-12T14:26:28.631Z,8.77
2018-12-12T14:29:00.611Z,8.65
2018-12-12T14:31:32.160Z,8.73
2018-12-12T14:35:51.285Z,8.61
2018-12-12T14:38:22.685Z,8.57
2018-12-12T14:40:55.217Z,8.59
2018-12-12T14:43:24.941Z,8.62
2018-12-12T14:45:54.337Z,8.58
2018-12-12T14:48:31.409Z,8.56
2018-12-12T14:51:00.368Z,8.47
2018-12-12T14:53:30.493Z,8.53
2018-12-12T14:56:39.826Z,8.57
2018-12-12T14:59:16.557Z,8.59
2018-12-12T15:01:48.845Z,8.45
2018-12-12T15:04:25.961Z,8.37
2018-12-12T15:06:55.051Z,8.45
2018-12-12T15:09:24.229Z,8.34
2018-12-12T15:12:03.623Z,8.27
2018-12-12T15:14:43.011Z,8.21
2018-12-12T15:17:12.842Z,8.22
2018-12-12T15:19:42.192Z,8.17
2018-12-12T15:22:11.236Z,8.15
2018-12-12T15:24:40.059Z,8.02
2018-12-12T15:27:11.382Z,7.93
2018-12-12T15:29:40.053Z,7.81
2018-12-12T15:32:10.744Z,7.74
2018-12-12T15:34:42.435Z,7.70
2018-12-12T15:37:14.727Z,7.76
2018-12-12T15:39:44.579Z,7.84
2018-12-12T15:42:14.783Z,7.74
2018-12-12T15:44:46.479Z,7.69
2018-12-12T15:47:15.497Z,7.68
2018-12-12T15:49:44.229Z,7.69
2018-12-12T15:52:14.342Z,7.62
2018-12-12T15:54:47.649Z,7.55
2018-12-12T15:57:16.481Z,7.44
2018-12-12T15:59:46.615Z,7.43
2018-12-12T16:02:15.647Z,7.38
2018-12-12T16:04:48.923Z,7.28
2018-12-12T16:07:14.725Z,7.26
2018-12-12T16:09:46.952Z,7.22
2018-12-12T16:12:18.098Z,7.25
2018-12-12T16:14:50.664Z,7.18
2018-12-12T16:17:23.712Z,7.22
2018-12-12T16:22:36.406Z,7.07
2018-12-12T16:25:09.207Z,6.99
2018-12-12T16:27:41.355Z,6.89
2018-12-12T16:32:57.492Z,6.81
2018-12-12T16:35:28.130Z,6.85
2018-12-12T16:38:04.281Z,6.81
2018-12-12T16:40:36.052Z,6.84
2018-12-12T16:43:04.941Z,6.81
2018-12-12T16:45:46.910Z,6.80
2018-12-12T16:48:25.797Z,6.82
2018-12-12T16:51:09.130Z,6.80
2018-12-12T16:54:02.275Z,6.75
2018-12-12T16:56:34.452Z,6.68
2018-12-12T17:00:46.834Z,6.59
2018-12-12T17:03:33.447Z,6.54
2018-12-12T17:08:50.114Z,6.43
2018-12-12T17:11:20.618Z,6.42
2018-12-12T17:13:53.694Z,6.43
2018-12-12T17:16:29.839Z,6.51
2018-12-12T17:19:01.687Z,6.63
2018-12-12T17:21:36.424Z,6.69
2018-12-12T17:24:08.576Z,6.77
2018-12-12T17:26:40.312Z,6.81
2018-12-12T17:29:17.876Z,6.89
2018-12-12T17:31:52.924Z,6.91
2018-12-12T17:34:25.476Z,6.79
2018-12-12T17:42:33.971Z,6.63
2018-12-12T17:47:52.641Z,6.48
2018-12-12T17:50:27.733Z,6.45
2018-12-12T17:53:02.309Z,6.46
2018-12-12T17:55:31.757Z,6.51
2018-12-12T17:58:09.768Z,6.56
2018-12-12T18:02:52.859Z,6.51
2018-12-12T18:05:32.098Z,6.43
2018-12-12T18:08:03.561Z,6.50
2018-12-12T18:10:35.626Z,6.44
2018-12-12T18:13:06.070Z,6.41
2018-12-12T18:15:39.004Z,6.39
2018-12-12T18:18:08.564Z,6.34
2018-12-12T18:20:41.530Z,6.31
2018-12-12T18:23:12.425Z,6.23
2018-12-12T18:25:45.692Z,6.25
2018-12-12T18:28:16.383Z,6.24
2018-12-12T18:30:47.322Z,6.24
2018-12-12T18:33:18.995Z,6.29
2018-12-12T18:35:49.408Z,6.23
2018-12-12T18:38:19.175Z,6.28
2018-12-12T18:40:51.984Z,6.26
2018-12-12T18:43:26.330Z,6.33
2018-12-12T18:46:09.490Z,6.32
2018-12-12T18:48:45.207Z,6.26
2018-12-12T18:51:16.667Z,6.33
2018-12-12T18:53:51.216Z,6.43
2018-12-12T18:56:23.000Z,6.39
2018-12-12T18:58:52.817Z,6.42
2018-12-12T19:01:32.947Z,6.41
2018-12-12T19:04:03.383Z,6.39
2018-12-12T19:06:32.418Z,6.37
2018-12-12T19:09:08.820Z,6.28
2018-12-12T19:11:44.472Z,6.33
2018-12-12T19:15:42.683Z,6.33
2018-12-12T19:18:17.278Z,6.26
2018-12-12T19:20:47.212Z,6.17
2018-12-12T19:23:19.119Z,6.04
2018-12-12T19:25:49.096Z,6.07
2018-12-12T19:28:20.623Z,6.21
2018-12-12T19:30:55.135Z,6.27
2018-12-12T19:33:25.027Z,6.23
2018-12-12T19:35:54.669Z,6.24
2018-12-12T19:38:25.772Z,6.30
2018-12-12T19:40:57.587Z,6.26
2018-12-12T19:43:30.165Z,6.28
2018-12-12T19:48:36.189Z,6.28
2018-12-12T19:51:11.821Z,6.06
2018-12-12T19:53:42.476Z,6.18
2018-12-12T19:56:17.525Z,6.24
2018-12-12T19:58:52.545Z,6.11
2018-12-12T20:01:33.804Z,6.21
2018-12-12T20:04:12.249Z,6.43
2018-12-12T20:06:43.859Z,6.41
2018-12-12T20:09:16.642Z,6.41
2018-12-12T20:11:54.071Z,6.44
2018-12-12T20:14:27.620Z,6.47
2018-12-12T20:16:59.952Z,6.42
2018-12-12T20:19:47.485Z,6.55
2018-12-12T20:22:19.615Z,6.58
2018-12-12T20:24:49.346Z,6.73
2018-12-12T20:27:21.868Z,6.67
2018-12-12T20:30:00.971Z,6.67
2018-12-12T20:35:10.274Z,6.88
2018-12-12T20:37:47.597Z,6.85
2018-12-12T20:40:16.608Z,6.90
2018-12-12T20:42:48.433Z,6.80
2018-12-12T20:45:20.892Z,6.81
2018-12-12T20:47:51.270Z,6.83
2018-12-12T20:50:20.767Z,6.97
2018-12-12T20:52:49.039Z,7.04
2018-12-12T20:55:18.544Z,7.04
2018-12-12T20:57:48.628Z,7.04
2018-12-12T21:00:19.400Z,7.13
2018-12-12T21:02:47.687Z,7.18
2018-12-12T21:05:16.351Z,7.31
2018-12-12T21:07:47.049Z,7.15
2018-12-12T21:10:15.678Z,7.13
2018-12-12T21:12:46.906Z,7.09
2018-12-12T21:15:19.832Z,7.12
2018-12-12T21:17:48.947Z,7.11
2018-12-12T21:20:17.446Z,7.10
2018-12-12T21:22:47.395Z,7.04
2018-12-12T21:25:19.426Z,7.00
2018-12-12T21:27:48.625Z,6.99
2018-12-12T21:30:20.620Z,6.98
2018-12-12T21:32:56.658Z,6.96
2018-12-12T21:35:28.203Z,6.96
2018-12-12T21:37:56.934Z,6.92
2018-12-12T21:40:35.753Z,6.95
2018-12-12T21:43:05.331Z,6.95
2018-12-12T21:45:36.322Z,6.93
2018-12-12T21:48:06.679Z,6.92
2018-12-12T21:50:35.401Z,6.91
2018-12-12T21:53:04.331Z,6.92
2018-12-12T21:55:33.001Z,6.93
2018-12-12T21:58:01.602Z,6.99
2018-12-12T22:00:30.198Z,7.07
2018-12-12T22:03:00.325Z,7.14
2018-12-12T22:05:28.799Z,7.11
2018-12-12T22:07:57.282Z,7.12
2018-12-12T22:10:25.927Z,7.14
2018-12-12T22:12:54.344Z,7.16
2018-12-12T22:15:23.537Z,7.14
2018-12-12T22:17:52.969Z,7.11
2018-12-12T22:20:21.254Z,7.10
2018-12-12T22:22:54.521Z,7.07
2018-12-12T22:25:25.853Z,7.05
2018-12-12T22:27:54.321Z,7.02
2018-12-12T22:30:28.158Z,7.04
2018-12-12T22:32:57.690Z,7.08
2018-12-12T22:35:26.118Z,7.08
2018-12-12T22:37:55.478Z,7.16
2018-12-12T22:40:26.154Z,7.14
2018-12-12T22:43:00.419Z,7.11
2018-12-12T22:45:32.893Z,7.02
2018-12-12T22:48:02.743Z,7.01
2018-12-12T22:50:32.610Z,6.98
2018-12-12T22:53:01.481Z,7.01
2018-12-12T22:55:29.948Z,7.00
2018-12-12T22:57:59.976Z,6.99
2018-12-12T23:00:34.852Z,7.02
2018-12-12T23:03:05.358Z,7.08
2018-12-12T23:05:33.973Z,7.02
2018-12-12T23:08:03.506Z,6.96
2018-12-12T23:10:33.556Z,6.93
2018-12-12T23:13:09.701Z,6.90
2018-12-12T23:15:43.036Z,6.90
2018-12-12T23:18:12.485Z,6.84
2018-12-12T23:20:40.908Z,6.86
2018-12-12T23:23:11.207Z,6.87
2018-12-12T23:25:42.045Z,6.89
2018-12-12T23:28:12.474Z,6.90
2018-12-12T23:30:46.242Z,6.93
2018-12-12T23:33:16.712Z,6.91
2018-12-12T23:35:46.505Z,6.88
2018-12-12T23:38:15.849Z,6.86
2018-12-12T23:40:44.668Z,6.86
2018-12-12T23:43:18.810Z,6.83
2018-12-12T23:45:50.989Z,6.89
2018-12-12T23:48:26.468Z,6.93
2018-12-12T23:50:59.037Z,6.85
2018-12-12T23:53:27.904Z,6.77
2018-12-12T23:55:56.212Z,6.72
2018-12-12T23:58:24.768Z,6.71
